Time;durP1;ratioP1;P1;durP2;ratioP2;P2;SDS_P1;SDS_P2;PMS_P1;PMS_P2;Temp;Humidity;BMP_temperature;BMP_pressure;BME280_temperature;BME280_humidity;BME280_pressure;Samples;Min_cycle;Max_cycle;Signal;HPM_P1;HPM_P2
2024/01/20 00:01:07;;;;;;;40.90;25.30;;;26.70;99.90;;;;;;5018507;28;20060;-72
2024/01/20 00:03:34;;;;;;;46.30;29.00;;;26.80;99.90;;;;;;5032277;28;20029;-72
2024/01/20 00:06:00;;;;;;;54.97;31.25;;;26.70;99.90;;;;;;5031592;28;20109;-71
2024/01/20 00:08:27;;;;;;;47.08;30.33;;;26.80;99.90;;;;;;5034614;28;20061;-71
2024/01/20 00:10:53;;;;;;;49.30;30.48;;;26.80;99.90;;;;;;5028217;28;20018;-70
2024/01/20 00:13:20;;;;;;;49.15;30.98;;;26.80;99.90;;;;;;5018605;28;20022;-70
2024/01/20 00:15:46;;;;;;;45.15;28.65;;;26.80;99.90;;;;;;5024535;28;20092;-69
2024/01/20 00:18:13;;;;;;;51.05;28.88;;;26.80;99.90;;;;;;5021237;28;20384;-69
2024/01/20 00:20:39;;;;;;;50.30;29.65;;;26.80;99.90;;;;;;5014717;28;20466;-69
2024/01/20 00:23:06;;;;;;;55.90;33.00;;;26.90;99.90;;;;;;5014620;28;20018;-69
2024/01/20 00:25:32;;;;;;;51.33;32.88;;;26.80;99.90;;;;;;5014591;28;20407;-70
2024/01/20 00:28:00;;;;;;;56.03;37.28;;;26.80;99.90;;;;;;5014419;28;20239;-69
2024/01/20 00:30:27;;;;;;;67.95;42.08;;;26.80;99.90;;;;;;5014304;28;20092;-67
2024/01/20 00:32:53;;;;;;;61.70;41.20;;;26.90;99.90;;;;;;5014299;28;20484;-69
2024/01/20 00:35:20;;;;;;;64.88;38.92;;;26.90;99.90;;;;;;5014394;28;20093;-69
2024/01/20 00:37:46;;;;;;;67.25;41.03;;;26.90;99.90;;;;;;5014344;28;20117;-70
2024/01/20 00:40:13;;;;;;;70.75;43.03;;;26.90;99.90;;;;;;5014344;28;20109;-70
2024/01/20 00:42:39;;;;;;;68.22;43.85;;;26.90;99.90;;;;;;5014543;28;20054;-69
2024/01/20 00:45:07;;;;;;;63.05;42.42;;;26.90;99.90;;;;;;5033901;28;20048;-70
2024/01/20 00:47:35;;;;;;;60.80;39.35;;;26.90;99.90;;;;;;5025324;28;20033;-70
2024/01/20 00:50:04;;;;;;;59.95;36.45;;;26.80;99.90;;;;;;5019527;28;20018;-70
2024/01/20 00:52:31;;;;;;;64.07;37.15;;;26.90;99.90;;;;;;5013237;28;20033;-67
2024/01/20 00:54:57;;;;;;;60.88;37.88;;;26.90;99.90;;;;;;5012658;28;20022;-71
2024/01/20 00:57:24;;;;;;;61.35;38.22;;;27.00;99.90;;;;;;5014223;28;20467;-70
2024/01/20 00:59:50;;;;;;;61.67;36.10;;;27.00;99.90;;;;;;5014075;28;20113;-69
2024/01/20 01:02:18;;;;;;;60.35;38.10;;;27.00;99.90;;;;;;5013918;28;20028;-69
2024/01/20 01:04:45;;;;;;;63.45;41.58;;;27.00;99.90;;;;;;5013879;28;20037;-69
2024/01/20 01:07:12;;;;;;;58.20;37.40;;;27.00;99.90;;;;;;5013036;28;20018;-69
2024/01/20 01:09:38;;;;;;;59.28;38.95;;;27.00;99.90;;;;;;5013667;28;20020;-70
2024/01/20 01:12:05;;;;;;;62.00;43.53;;;27.00;99.90;;;;;;5013761;28;20537;-70
2024/01/20 01:14:31;;;;;;;49.65;33.05;;;27.10;99.90;;;;;;5013943;28;20056;-70
2024/01/20 01:16:58;;;;;;;53.08;31.23;;;27.10;99.90;;;;;;5013931;28;20022;-69
2024/01/20 01:19:25;;;;;;;46.35;30.83;;;27.20;99.90;;;;;;5013971;28;20056;-70
2024/01/20 01:21:51;;;;;;;49.60;30.02;;;27.20;99.90;;;;;;5013799;28;20475;-69
2024/01/20 01:24:18;;;;;;;46.40;31.73;;;27.30;99.90;;;;;;5013588;28;20364;-69
2024/01/20 01:26:44;;;;;;;52.17;35.13;;;27.40;99.90;;;;;;5014006;28;20029;-69
2024/01/20 01:29:11;;;;;;;58.00;38.22;;;27.40;99.90;;;;;;5013678;28;20125;-70
2024/01/20 01:31:37;;;;;;;43.05;30.30;;;27.50;99.90;;;;;;5013756;28;20049;-70
2024/01/20 01:34:04;;;;;;;68.47;43.63;;;27.50;99.90;;;;;;5013776;28;20029;-70
2024/01/20 01:36:30;;;;;;;72.32;48.72;;;27.60;99.90;;;;;;5015161;28;20049;-70
2024/01/20 01:38:57;;;;;;;61.80;39.83;;;27.60;99.90;;;;;;5014868;28;20033;-70
2024/01/20 01:41:23;;;;;;;59.05;39.38;;;27.60;99.90;;;;;;5015318;28;20417;-69
2024/01/20 01:43:50;;;;;;;74.35;48.20;;;27.60;99.90;;;;;;5014957;28;20490;-69
2024/01/20 01:46:16;;;;;;;64.88;41.97;;;27.60;99.90;;;;;;5015108;28;20026;-69
2024/01/20 01:48:43;;;;;;;40.03;25.98;;;27.60;99.90;;;;;;5015253;28;20025;-70
2024/01/20 01:51:12;;;;;;;49.47;31.70;;;27.70;99.90;;;;;;5014722;28;20014;-70
2024/01/20 01:53:40;;;;;;;44.58;36.28;;;27.70;99.90;;;;;;5013359;28;20097;-69
2024/01/20 01:56:07;;;;;;;49.20;32.53;;;27.70;99.90;;;;;;5023722;28;20088;-69
2024/01/20 01:58:34;;;;;;;87.55;57.55;;;27.70;99.90;;;;;;5033289;28;20049;-68
2024/01/20 02:01:00;;;;;;;53.90;36.08;;;27.80;99.90;;;;;;5033087;28;20045;-70
2024/01/20 02:03:27;;;;;;;51.35;33.60;;;27.90;99.90;;;;;;5033254;28;20026;-69
2024/01/20 02:05:54;;;;;;;59.08;28.13;;;27.90;99.90;;;;;;5033039;28;20024;-69
2024/01/20 02:08:21;;;;;;;51.33;27.98;;;28.00;99.90;;;;;;5033225;28;20305;-67
2024/01/20 02:10:48;;;;;;;53.47;36.38;;;28.00;99.90;;;;;;5018861;28;20034;-68
2024/01/20 02:13:15;;;;;;;37.78;23.55;;;28.00;99.90;;;;;;5015624;28;20049;-69
2024/01/20 02:15:41;;;;;;;46.13;31.42;;;28.10;99.90;;;;;;5032963;28;20471;-68
2024/01/20 02:18:08;;;;;;;55.72;35.33;;;28.10;99.90;;;;;;5031560;28;20022;-68
2024/01/20 02:20:34;;;;;;;37.17;27.13;;;28.10;99.90;;;;;;5033069;28;20493;-68
2024/01/20 02:23:01;;;;;;;33.15;21.88;;;28.10;99.90;;;;;;5030020;28;20518;-67
2024/01/20 02:25:28;;;;;;;42.28;28.73;;;28.10;99.90;;;;;;5027149;28;20108;-68
2024/01/20 02:27:54;;;;;;;46.92;32.03;;;28.20;99.90;;;;;;5028272;28;20036;-69
2024/01/20 02:30:21;;;;;;;29.63;18.38;;;28.30;99.90;;;;;;5026743;28;20407;-70
2024/01/20 02:32:48;;;;;;;42.50;25.02;;;28.40;99.90;;;;;;5027650;28;20017;-70
2024/01/20 02:35:16;;;;;;;39.38;23.20;;;28.40;99.90;;;;;;5026159;28;20045;-70
2024/01/20 02:37:42;;;;;;;31.67;20.25;;;28.50;99.90;;;;;;5027016;28;20033;-71
2024/01/20 02:40:09;;;;;;;34.17;22.25;;;28.50;99.90;;;;;;5026774;28;20478;-71
2024/01/20 02:42:35;;;;;;;32.22;18.13;;;28.50;99.90;;;;;;5025947;28;20018;-70
2024/01/20 02:45:02;;;;;;;25.38;15.75;;;28.60;99.90;;;;;;5024919;28;20087;-70
2024/01/20 02:47:29;;;;;;;21.48;14.40;;;28.70;99.90;;;;;;5026651;28;20045;-69
2024/01/20 02:49:55;;;;;;;23.92;15.82;;;28.80;99.90;;;;;;5025754;28;20013;-70
2024/01/20 02:52:22;;;;;;;23.55;13.98;;;28.80;99.90;;;;;;5024833;28;20048;-70
2024/01/20 02:54:48;;;;;;;24.35;15.27;;;28.80;99.90;;;;;;5025322;28;20402;-70
2024/01/20 02:57:16;;;;;;;38.42;18.23;;;28.90;99.90;;;;;;5025572;28;20529;-69
2024/01/20 02:59:42;;;;;;;29.20;16.48;;;28.90;99.90;;;;;;5024599;28;20483;-69
2024/01/20 03:02:09;;;;;;;31.92;18.70;;;28.90;99.90;;;;;;5026472;28;20021;-69
2024/01/20 03:04:35;;;;;;;23.50;15.55;;;29.00;99.90;;;;;;5025418;28;20459;-69
2024/01/20 03:07:02;;;;;;;28.25;15.65;;;29.10;99.90;;;;;;5024424;28;20100;-68
2024/01/20 03:09:28;;;;;;;26.40;14.95;;;29.20;99.90;;;;;;5026246;28;20033;-66
2024/01/20 03:11:55;;;;;;;23.38;16.17;;;29.30;99.90;;;;;;5025295;28;20471;-69
2024/01/20 03:14:21;;;;;;;26.95;16.27;;;29.30;99.90;;;;;;5024532;28;20025;-67
2024/01/20 03:16:48;;;;;;;26.65;16.35;;;29.40;99.90;;;;;;5026051;28;20018;-67
2024/01/20 03:19:14;;;;;;;28.88;16.10;;;29.40;99.90;;;;;;5025080;28;20092;-67
2024/01/20 03:21:41;;;;;;;32.75;18.02;;;29.60;99.90;;;;;;5025072;28;20049;-65
2024/01/20 03:24:09;;;;;;;26.50;17.08;;;29.60;99.90;;;;;;5032614;28;20029;-65
2024/01/20 03:26:36;;;;;;;26.58;16.05;;;29.60;99.90;;;;;;5036584;28;20021;-65
2024/01/20 03:29:04;;;;;;;22.98;14.45;;;29.60;99.90;;;;;;5036380;28;20072;-65
2024/01/20 03:31:30;;;;;;;23.83;15.50;;;29.60;99.90;;;;;;5036295;28;20034;-67
2024/01/20 03:33:57;;;;;;;20.58;15.00;;;29.60;99.90;;;;;;5036383;28;20112;-67
2024/01/20 03:36:23;;;;;;;26.90;16.50;;;29.60;99.90;;;;;;5035130;28;20091;-67
2024/01/20 03:38:50;;;;;;;23.27;14.82;;;29.60;99.90;;;;;;5036206;28;20290;-65
2024/01/20 03:41:17;;;;;;;23.83;14.50;;;29.60;99.90;;;;;;5036321;28;20178;-66
2024/01/20 03:43:44;;;;;;;25.77;15.52;;;29.70;99.90;;;;;;5036380;28;20391;-66
2024/01/20 03:46:10;;;;;;;26.08;15.38;;;29.70;99.90;;;;;;5036208;28;20025;-64
2024/01/20 03:48:37;;;;;;;23.13;13.80;;;29.70;99.90;;;;;;5035578;28;20021;-67
2024/01/20 03:51:03;;;;;;;25.67;15.05;;;29.70;99.90;;;;;;5035137;28;20028;-66
2024/01/20 03:53:30;;;;;;;23.50;15.10;;;29.70;99.90;;;;;;5035318;28;20470;-65
2024/01/20 03:55:56;;;;;;;63.38;57.53;;;29.70;99.90;;;;;;5034811;28;20030;-68
2024/01/20 03:58:23;;;;;;;42.90;38.90;;;29.80;99.90;;;;;;5035233;28;20028;-69
2024/01/20 04:00:49;;;;;;;62.72;57.22;;;29.90;99.90;;;;;;5034910;28;20017;-68
2024/01/20 04:03:16;;;;;;;81.90;75.15;;;30.00;99.90;;;;;;5034934;28;20072;-68
2024/01/20 04:05:47;;;;;;;40.63;36.90;;;30.10;99.90;;;;;;5035007;28;20096;-71
2024/01/20 04:08:14;;;;;;;38.07;34.07;;;30.10;99.90;;;;;;5034326;28;20029;-71
2024/01/20 04:10:41;;;;;;;28.88;25.90;;;30.20;99.90;;;;;;5021607;28;20101;-72
2024/01/20 04:13:07;;;;;;;24.52;19.33;;;30.30;99.90;;;;;;5014610;28;20053;-72
2024/01/20 04:15:34;;;;;;;22.00;18.65;;;30.30;99.90;;;;;;5022375;28;20013;-70
2024/01/20 04:18:01;;;;;;;27.98;22.38;;;30.40;99.90;;;;;;5027641;28;20021;-72
2024/01/20 04:20:27;;;;;;;30.95;27.85;;;30.40;99.90;;;;;;5026853;28;20067;-73
2024/01/20 04:22:54;;;;;;;23.48;16.48;;;30.50;99.90;;;;;;5030928;28;20463;-72
2024/01/20 04:25:20;;;;;;;18.40;15.05;;;30.50;99.90;;;;;;5022661;28;20129;-72
2024/01/20 04:27:46;;;;;;;16.30;13.98;;;30.60;99.90;;;;;;5022489;28;20109;-73
2024/01/20 04:30:13;;;;;;;22.90;16.30;;;30.60;99.90;;;;;;5023003;28;20457;-71
2024/01/20 04:32:40;;;;;;;20.23;15.15;;;30.70;99.90;;;;;;5022063;28;20025;-72
2024/01/20 04:35:07;;;;;;;17.25;14.52;;;30.70;99.90;;;;;;5014151;28;20459;-73
2024/01/20 04:37:34;;;;;;;21.27;17.30;;;30.70;99.90;;;;;;5014171;28;20041;-74
2024/01/20 04:40:01;;;;;;;23.42;19.40;;;30.80;99.90;;;;;;5014099;28;20057;-75
2024/01/20 04:42:28;;;;;;;22.17;15.57;;;30.80;99.90;;;;;;5012975;28;20451;-73
2024/01/20 04:44:54;;;;;;;17.88;14.75;;;30.80;99.90;;;;;;5014125;28;20382;-73
2024/01/20 04:47:22;;;;;;;15.52;12.88;;;30.70;99.90;;;;;;5013534;28;20029;-73
2024/01/20 04:49:51;;;;;;;18.75;14.23;;;30.80;99.90;;;;;;5014002;28;20045;-73
2024/01/20 04:52:19;;;;;;;20.90;12.38;;;30.80;99.90;;;;;;5013898;28;20030;-72
2024/01/20 04:54:46;;;;;;;23.20;12.63;;;30.80;99.90;;;;;;5013772;28;20049;-73
2024/01/20 04:57:12;;;;;;;22.88;14.13;;;30.90;99.90;;;;;;5013958;28;20029;-73
2024/01/20 04:59:39;;;;;;;19.95;17.92;;;31.00;99.90;;;;;;5013780;28;20021;-72
2024/01/20 05:02:05;;;;;;;24.02;14.82;;;31.10;99.90;;;;;;5013709;28;20109;-73
2024/01/20 05:04:32;;;;;;;17.92;11.82;;;31.10;99.90;;;;;;5014024;28;20022;-71
2024/01/20 05:06:58;;;;;;;19.17;10.23;;;31.10;99.90;;;;;;5013718;28;20049;-73
2024/01/20 05:09:25;;;;;;;14.98;11.35;;;31.20;99.90;;;;;;5013706;28;20022;-73
2024/01/20 05:11:51;;;;;;;21.63;11.30;;;31.10;99.90;;;;;;5013816;28;20014;-72
2024/01/20 05:14:18;;;;;;;18.95;10.75;;;31.20;99.90;;;;;;5013636;28;20018;-72
2024/01/20 05:16:44;;;;;;;22.52;11.60;;;31.30;99.90;;;;;;5013567;28;20357;-69
2024/01/20 05:19:11;;;;;;;15.50;10.55;;;31.20;99.90;;;;;;5013651;28;20522;-69
2024/01/20 05:21:38;;;;;;;16.60;10.95;;;31.20;99.90;;;;;;5013649;28;20029;-68
2024/01/20 05:24:05;;;;;;;22.38;10.13;;;31.30;99.90;;;;;;5013477;28;20026;-68
2024/01/20 05:26:32;;;;;;;18.05;11.32;;;31.30;99.90;;;;;;5013364;28;20680;-70
2024/01/20 05:28:58;;;;;;;19.58;12.60;;;31.30;99.90;;;;;;5023677;28;20033;-71
2024/01/20 05:31:31;;;;;;;47.13;30.67;;;31.30;99.90;;;;;;5022983;28;20010;-72
2024/01/20 05:33:58;;;;;;;66.72;40.85;;;31.30;99.90;;;;;;5029626;28;20064;-75
2024/01/20 05:36:25;;;;;;;44.10;30.80;;;31.40;99.90;;;;;;5028713;28;20025;-76
2024/01/20 05:38:51;;;;;;;33.58;29.92;;;31.50;99.90;;;;;;5023469;28;20043;-71
2024/01/20 05:41:18;;;;;;;42.22;38.22;;;31.60;99.90;;;;;;5023174;28;20034;-71
2024/01/20 05:43:44;;;;;;;126.22;115.13;;;31.70;99.90;;;;;;5021823;28;20105;-70
2024/01/20 05:46:11;;;;;;;98.22;90.13;;;31.70;99.90;;;;;;5023698;28;20022;-68
2024/01/20 05:48:37;;;;;;;80.85;73.78;;;31.70;99.90;;;;;;5023056;28;20034;-71
2024/01/20 05:51:04;;;;;;;92.60;85.18;;;31.70;99.90;;;;;;5021892;28;20072;-70
2024/01/20 05:53:31;;;;;;;116.43;106.75;;;31.70;99.90;;;;;;5023111;28;20045;-70
2024/01/20 05:55:57;;;;;;;198.90;181.43;;;31.90;99.90;;;;;;5022687;28;20017;-70
2024/01/20 05:58:24;;;;;;;400.17;360.67;;;32.00;99.90;;;;;;5021571;28;20109;-71
2024/01/20 06:00:50;;;;;;;520.53;469.30;;;32.00;99.90;;;;;;5026792;28;20100;-69
2024/01/20 06:03:16;;;;;;;360.23;325.05;;;32.00;99.90;;;;;;5026448;28;20021;-70
2024/01/20 06:05:43;;;;;;;56.55;51.80;;;32.10;99.90;;;;;;5025578;28;20364;-69
2024/01/20 06:08:10;;;;;;;69.88;61.92;;;32.30;99.90;;;;;;5027501;28;20017;-70
2024/01/20 06:10:36;;;;;;;106.25;96.85;;;32.30;99.90;;;;;;5028647;28;20510;-70
2024/01/20 06:13:03;;;;;;;129.38;118.60;;;32.20;99.90;;;;;;5028069;28;20018;-68
2024/01/20 06:15:29;;;;;;;212.13;193.35;;;32.10;99.90;;;;;;5027217;28;20049;-70
2024/01/20 06:17:56;;;;;;;254.60;229.23;;;32.20;99.90;;;;;;5025991;28;20036;-69
2024/01/20 06:20:22;;;;;;;37.10;33.20;;;32.10;99.90;;;;;;5025340;28;20021;-69
2024/01/20 06:22:49;;;;;;;308.77;279.20;;;32.00;99.90;;;;;;5027847;28;20022;-69
2024/01/20 06:25:15;;;;;;;300.10;270.85;;;32.00;99.90;;;;;;5027904;28;20021;-71
2024/01/20 06:27:42;;;;;;;556.22;503.17;;;32.00;99.90;;;;;;5029624;28;20022;-67
2024/01/20 06:30:09;;;;;;;67.72;62.05;;;32.00;99.90;;;;;;5024996;28;20069;-68
2024/01/20 06:32:35;;;;;;;25.38;21.23;;;32.10;99.90;;;;;;5018843;28;20018;-69
2024/01/20 06:35:02;;;;;;;39.50;35.63;;;32.20;99.90;;;;;;5016671;28;20025;-67
2024/01/20 06:37:29;;;;;;;23.08;15.65;;;32.20;99.90;;;;;;5025734;28;20025;-67
2024/01/20 06:39:55;;;;;;;16.95;8.50;;;32.20;99.90;;;;;;5027074;28;20025;-67
2024/01/20 06:42:22;;;;;;;15.48;10.30;;;32.20;99.90;;;;;;5031623;28;20109;-67
2024/01/20 06:44:48;;;;;;;21.88;10.95;;;32.20;99.90;;;;;;5026984;28;20100;-67
2024/01/20 06:47:15;;;;;;;16.27;9.68;;;32.20;99.90;;;;;;5023928;28;20474;-66
2024/01/20 06:49:41;;;;;;;22.02;13.13;;;32.20;99.90;;;;;;5026408;28;20204;-67
2024/01/20 06:52:08;;;;;;;49.65;31.67;;;32.30;99.90;;;;;;5024626;28;20018;-69
2024/01/20 06:54:34;;;;;;;16.98;11.85;;;32.20;99.90;;;;;;5025555;28;20048;-68
2024/01/20 06:57:01;;;;;;;13.70;8.50;;;32.30;99.90;;;;;;5025919;28;20022;-69
2024/01/20 06:59:27;;;;;;;11.85;7.95;;;32.20;99.90;;;;;;5024475;28;20052;-68
2024/01/20 07:01:54;;;;;;;15.93;7.55;;;32.20;99.90;;;;;;5025610;28;20101;-69
2024/01/20 07:04:20;;;;;;;20.35;12.73;;;32.20;99.90;;;;;;5025733;28;20018;-67
2024/01/20 07:06:47;;;;;;;14.95;9.05;;;32.30;99.90;;;;;;5024031;28;20029;-67
2024/01/20 07:09:13;;;;;;;91.88;62.42;;;32.30;99.90;;;;;;5025714;28;20427;-67
2024/01/20 07:11:41;;;;;;;63.92;42.00;;;32.30;99.90;;;;;;5025524;28;20064;-67
2024/01/20 07:14:07;;;;;;;82.88;57.42;;;32.40;99.90;;;;;;5024213;28;20448;-68
2024/01/20 07:16:34;;;;;;;19.33;10.40;;;32.40;99.90;;;;;;5025604;28;20018;-67
2024/01/20 07:19:00;;;;;;;11.25;8.18;;;32.40;99.90;;;;;;5029714;28;20029;-67
2024/01/20 07:21:27;;;;;;;15.40;8.45;;;32.40;99.90;;;;;;5023431;28;20412;-65
2024/01/20 07:23:54;;;;;;;26.67;10.68;;;32.50;99.90;;;;;;5028926;28;20048;-66
2024/01/20 07:26:20;;;;;;;15.77;8.88;;;32.50;99.90;;;;;;5034549;28;20187;-65
2024/01/20 07:28:47;;;;;;;17.80;10.57;;;32.50;99.90;;;;;;5034536;28;20054;-66
2024/01/20 07:31:13;;;;;;;19.00;8.25;;;32.50;99.90;;;;;;5028533;28;20022;-63
2024/01/20 07:33:41;;;;;;;17.58;9.20;;;32.50;99.90;;;;;;5025194;28;20028;-63
2024/01/20 07:36:07;;;;;;;16.13;8.60;;;32.50;99.90;;;;;;5024427;28;20391;-65
2024/01/20 07:38:34;;;;;;;11.52;8.07;;;32.40;99.90;;;;;;5023071;28;20410;-66
2024/01/20 07:41:01;;;;;;;21.52;8.50;;;32.50;99.90;;;;;;5023015;28;20108;-66
2024/01/20 07:43:27;;;;;;;15.02;8.43;;;32.50;99.90;;;;;;5022537;28;20629;-65
2024/01/20 07:45:54;;;;;;;14.65;8.93;;;32.50;99.90;;;;;;5024417;28;20029;-64
2024/01/20 07:48:21;;;;;;;17.48;9.68;;;32.60;99.90;;;;;;5025382;28;20034;-70
2024/01/20 07:50:49;;;;;;;13.90;8.70;;;32.60;99.90;;;;;;5031841;28;20026;-70
2024/01/20 07:53:15;;;;;;;16.15;9.80;;;32.60;99.90;;;;;;5026639;28;20475;-70
2024/01/20 07:55:43;;;;;;;18.13;11.57;;;32.60;99.90;;;;;;5027735;28;20030;-70
2024/01/20 07:58:09;;;;;;;15.20;9.45;;;32.60;99.90;;;;;;5027443;28;20101;-70
2024/01/20 08:00:36;;;;;;;15.65;10.23;;;32.70;99.90;;;;;;5024470;28;20037;-67
2024/01/20 08:03:02;;;;;;;21.52;10.82;;;32.70;99.90;;;;;;5025460;28;20030;-68
2024/01/20 08:05:31;;;;;;;14.23;10.52;;;32.70;99.90;;;;;;5025452;28;20382;-68
2024/01/20 08:07:57;;;;;;;16.30;10.45;;;32.70;99.90;;;;;;5027181;28;20478;-70
2024/01/20 08:10:24;;;;;;;22.73;10.93;;;32.70;99.90;;;;;;5030380;28;20030;-71
2024/01/20 08:12:51;;;;;;;13.15;8.40;;;32.70;99.90;;;;;;5027989;28;20282;-71
2024/01/20 08:15:18;;;;;;;15.60;9.27;;;32.60;99.90;;;;;;5024063;28;20419;-70
2024/01/20 08:17:44;;;;;;;18.10;9.05;;;32.60;99.90;;;;;;5025004;28;20052;-68
2024/01/20 08:20:11;;;;;;;14.93;9.27;;;32.60;99.90;;;;;;5027602;28;20026;-70
2024/01/20 08:22:38;;;;;;;17.25;9.57;;;32.60;99.90;;;;;;5024114;28;20033;-71
2024/01/20 08:25:05;;;;;;;44.92;32.85;;;32.60;99.90;;;;;;5024687;28;20034;-71
2024/01/20 08:27:32;;;;;;;46.47;29.17;;;32.70;99.90;;;;;;5024825;28;20590;-71
2024/01/20 08:29:58;;;;;;;54.35;35.92;;;32.70;99.90;;;;;;5029087;28;20343;-70
2024/01/20 08:32:25;;;;;;;36.30;23.52;;;32.70;99.90;;;;;;5024689;28;20786;-71
2024/01/20 08:34:51;;;;;;;31.95;21.25;;;32.70;99.90;;;;;;5026260;28;20116;-70
2024/01/20 08:37:18;;;;;;;29.70;19.90;;;32.70;99.90;;;;;;5026729;28;20132;-69
2024/01/20 08:39:44;;;;;;;38.10;23.67;;;32.60;99.90;;;;;;5024782;28;20039;-70
2024/01/20 08:42:11;;;;;;;22.77;14.27;;;32.60;99.90;;;;;;5024156;28;20033;-69
2024/01/20 08:44:37;;;;;;;34.35;20.52;;;32.60;99.90;;;;;;5031997;28;20034;-68
2024/01/20 08:47:04;;;;;;;41.60;26.67;;;32.70;99.90;;;;;;5030873;28;20105;-71
2024/01/20 08:49:30;;;;;;;24.17;14.77;;;32.70;99.90;;;;;;5025247;28;20057;-71
2024/01/20 08:51:57;;;;;;;41.78;30.15;;;32.60;99.90;;;;;;5024163;28;20377;-70
2024/01/20 08:54:23;;;;;;;34.30;23.33;;;32.60;99.90;;;;;;5028276;28;20605;-70
2024/01/20 08:56:50;;;;;;;25.48;16.65;;;32.60;99.90;;;;;;5023923;28;20036;-70
2024/01/20 08:59:18;;;;;;;38.88;20.42;;;32.60;99.90;;;;;;5024741;28;20285;-67
2024/01/20 09:01:44;;;;;;;38.45;22.45;;;32.60;99.90;;;;;;5030888;28;20087;-66
2024/01/20 09:04:11;;;;;;;42.35;28.45;;;32.70;99.90;;;;;;5022530;28;20030;-66
2024/01/20 09:06:39;;;;;;;47.30;30.02;;;32.60;99.90;;;;;;5022738;28;20037;-68
2024/01/20 09:09:06;;;;;;;32.13;23.55;;;32.60;99.90;;;;;;5029400;28;20075;-67
2024/01/20 09:11:32;;;;;;;23.15;14.57;;;32.60;99.90;;;;;;5032608;28;20108;-68
2024/01/20 09:13:59;;;;;;;16.45;12.48;;;32.60;99.90;;;;;;5029290;28;20024;-66
2024/01/20 09:16:25;;;;;;;58.35;39.47;;;32.60;99.90;;;;;;5024173;28;20029;-67
2024/01/20 09:18:52;;;;;;;49.58;34.25;;;32.60;99.90;;;;;;5025055;28;20034;-65
2024/01/20 09:21:18;;;;;;;36.90;21.33;;;32.60;99.90;;;;;;5023177;28;20030;-70
2024/01/20 09:23:45;;;;;;;36.95;21.80;;;32.50;99.90;;;;;;5024439;28;20079;-68
2024/01/20 09:26:12;;;;;;;94.85;62.13;;;32.60;99.90;;;;;;5023939;28;20402;-67
2024/01/20 09:28:38;;;;;;;19.13;12.73;;;32.60;99.90;;;;;;5029408;28;20029;-68
2024/01/20 09:31:05;;;;;;;27.48;15.77;;;32.60;99.90;;;;;;5026440;28;20068;-67
2024/01/20 09:33:32;;;;;;;29.23;15.95;;;32.60;99.90;;;;;;5029093;28;20033;-64
2024/01/20 09:35:59;;;;;;;29.75;17.27;;;32.60;99.90;;;;;;5027108;28;20109;-70
2024/01/20 09:38:28;;;;;;;24.23;14.95;;;32.60;99.90;;;;;;5024961;28;20021;-68
2024/01/20 09:40:57;;;;;;;24.65;14.98;;;32.50;99.90;;;;;;5026873;28;20128;-69
2024/01/20 09:43:23;;;;;;;19.13;11.88;;;32.40;99.90;;;;;;5025074;28;20103;-68
2024/01/20 09:45:51;;;;;;;27.92;16.55;;;32.40;99.90;;;;;;5031783;28;20030;-67
2024/01/20 09:48:19;;;;;;;36.63;19.25;;;32.50;99.90;;;;;;5025695;28;20111;-68
2024/01/20 09:50:45;;;;;;;36.65;18.92;;;32.40;99.90;;;;;;5026471;28;20021;-68
2024/01/20 09:53:15;;;;;;;22.20;12.65;;;32.50;99.90;;;;;;5031177;28;20018;-67
2024/01/20 09:55:43;;;;;;;19.65;11.85;;;32.50;99.90;;;;;;5027200;28;20248;-68
2024/01/20 09:58:12;;;;;;;18.67;12.15;;;32.40;99.90;;;;;;5027995;28;20479;-69
2024/01/20 10:00:40;;;;;;;18.50;10.20;;;32.40;99.90;;;;;;5028374;28;20382;-68
2024/01/20 10:03:11;;;;;;;21.50;11.73;;;32.40;99.90;;;;;;5029597;28;20033;-71
2024/01/20 10:05:38;;;;;;;25.08;13.30;;;32.40;99.90;;;;;;5029588;28;20065;-68
2024/01/20 10:08:05;;;;;;;28.05;13.30;;;32.40;99.90;;;;;;5028709;28;20025;-68
2024/01/20 10:10:32;;;;;;;19.85;12.02;;;32.40;99.90;;;;;;5031883;28;20394;-63
2024/01/20 10:13:00;;;;;;;31.60;22.88;;;32.40;99.90;;;;;;5030452;28;20360;-69
2024/01/20 10:15:30;;;;;;;27.63;16.05;;;32.40;99.90;;;;;;5033759;28;20461;-71
2024/01/20 10:17:59;;;;;;;29.25;14.98;;;32.30;99.90;;;;;;5036410;28;20113;-70
2024/01/20 10:20:32;;;;;;;38.88;19.40;;;32.30;99.90;;;;;;5034592;28;20414;-70
2024/01/20 10:23:03;;;;;;;107.65;35.22;;;32.20;99.90;;;;;;5035216;28;20109;-70
2024/01/20 10:25:29;;;;;;;169.63;63.85;;;32.20;99.90;;;;;;5033829;28;20077;-71
2024/01/20 10:27:56;;;;;;;89.70;38.55;;;32.20;99.90;;;;;;5033438;28;20017;-70
2024/01/20 10:30:24;;;;;;;80.28;38.88;;;32.20;99.90;;;;;;5034013;28;20084;-69
2024/01/20 10:32:52;;;;;;;105.03;47.67;;;32.20;99.90;;;;;;5033785;28;20052;-72
2024/01/20 10:35:18;;;;;;;47.17;23.25;;;32.10;99.90;;;;;;5033545;28;20105;-69
2024/01/20 10:37:49;;;;;;;52.95;24.67;;;32.00;99.90;;;;;;5034111;28;20029;-69
2024/01/20 10:40:16;;;;;;;53.58;27.13;;;32.00;99.90;;;;;;5034189;28;20103;-69
2024/01/20 10:42:45;;;;;;;50.08;23.00;;;32.10;99.90;;;;;;5034009;28;20029;-70
2024/01/20 10:45:24;;;;;;;35.58;18.40;;;32.10;99.90;;;;;;5033430;28;20021;-70
2024/01/20 10:48:20;;;;;;;46.03;21.10;;;32.00;99.90;;;;;;5034133;28;20034;-68
2024/01/20 10:50:56;;;;;;;38.65;21.65;;;32.00;99.90;;;;;;5032509;28;20048;-68
2024/01/20 10:53:24;;;;;;;36.72;19.10;;;32.00;99.90;;;;;;5033960;28;20594;-69
2024/01/20 10:55:51;;;;;;;44.65;21.48;;;32.00;99.90;;;;;;5033675;28;20104;-70
2024/01/20 10:58:23;;;;;;;48.55;23.85;;;32.00;99.90;;;;;;5034196;28;20394;-72
2024/01/20 11:00:51;;;;;;;59.45;28.40;;;32.00;99.90;;;;;;5033918;28;20454;-70
2024/01/20 11:03:18;;;;;;;57.28;28.23;;;32.00;99.90;;;;;;5033773;28;20033;-71
2024/01/20 11:05:47;;;;;;;55.05;29.98;;;32.00;99.90;;;;;;5033850;28;20441;-71
2024/01/20 11:08:13;;;;;;;47.55;24.63;;;31.90;99.90;;;;;;5033697;28;20037;-67
2024/01/20 11:10:41;;;;;;;54.13;29.48;;;31.90;99.90;;;;;;5034081;28;20130;-69
2024/01/20 11:13:09;;;;;;;61.08;34.35;;;31.90;99.90;;;;;;5033651;28;20033;-70
2024/01/20 11:15:36;;;;;;;100.32;51.17;;;31.90;99.90;;;;;;5033608;28;20026;-71
2024/01/20 11:18:14;;;;;;;80.22;42.35;;;31.80;99.90;;;;;;5033480;28;20606;-69
2024/01/20 11:20:41;;;;;;;45.22;26.45;;;31.90;99.90;;;;;;5033727;28;20029;-69
2024/01/20 11:23:10;;;;;;;48.90;28.63;;;31.80;99.90;;;;;;5034808;28;20037;-71
2024/01/20 11:25:36;;;;;;;69.70;33.60;;;31.80;99.90;;;;;;5034894;28;20037;-69
2024/01/20 11:28:03;;;;;;;45.90;27.48;;;31.80;99.90;;;;;;5034671;28;20034;-71
2024/01/20 11:30:34;;;;;;;47.83;26.50;;;31.70;99.90;;;;;;5034520;28;20057;-72
2024/01/20 11:33:02;;;;;;;49.50;28.43;;;31.70;99.90;;;;;;5035091;28;20030;-71
2024/01/20 11:35:28;;;;;;;44.13;24.85;;;31.70;99.90;;;;;;5034862;28;20092;-72
2024/01/20 11:37:57;;;;;;;46.30;25.10;;;31.60;99.90;;;;;;5034650;28;20029;-72
2024/01/20 11:40:24;;;;;;;43.08;23.83;;;31.50;99.90;;;;;;5034771;28;20474;-72
2024/01/20 11:42:51;;;;;;;41.65;23.30;;;31.50;99.90;;;;;;5034681;28;20036;-71
2024/01/20 11:45:17;;;;;;;36.22;20.85;;;31.40;99.90;;;;;;5034508;28;20099;-71
2024/01/20 11:47:44;;;;;;;54.13;29.70;;;31.40;99.90;;;;;;5034467;28;20036;-72
2024/01/20 11:50:10;;;;;;;59.53;33.28;;;31.40;99.90;;;;;;5034644;28;20534;-72
2024/01/20 11:52:37;;;;;;;61.67;33.13;;;31.30;99.90;;;;;;5034402;28;20049;-71
2024/01/20 11:55:04;;;;;;;58.20;31.08;;;31.30;99.90;;;;;;5034331;28;20390;-71
2024/01/20 11:57:30;;;;;;;46.15;27.45;;;31.30;99.90;;;;;;5033597;28;20018;-72
2024/01/20 11:59:58;;;;;;;40.17;22.88;;;31.20;99.90;;;;;;5034293;28;20034;-70
2024/01/20 12:02:25;;;;;;;36.03;21.88;;;31.20;99.90;;;;;;5034588;28;20104;-70
2024/01/20 12:04:52;;;;;;;31.90;21.27;;;31.20;99.90;;;;;;5034451;28;20036;-69
2024/01/20 12:07:19;;;;;;;41.95;24.17;;;31.20;99.90;;;;;;5034035;28;20021;-69
2024/01/20 12:09:47;;;;;;;46.40;25.75;;;31.10;99.90;;;;;;5034397;28;20017;-71
2024/01/20 12:12:14;;;;;;;48.03;28.88;;;31.10;99.90;;;;;;5034204;28;20108;-71
2024/01/20 12:14:42;;;;;;;47.05;26.67;;;31.00;99.90;;;;;;5032630;28;20470;-71
2024/01/20 12:17:10;;;;;;;61.38;31.27;;;31.00;99.90;;;;;;5034092;28;20510;-71
2024/01/20 12:19:39;;;;;;;56.17;28.13;;;31.00;99.90;;;;;;5034110;28;20021;-71
2024/01/20 12:22:09;;;;;;;44.53;23.13;;;30.90;99.90;;;;;;5033865;28;20035;-71
2024/01/20 12:24:36;;;;;;;42.50;25.15;;;30.90;99.90;;;;;;5033990;28;20025;-71